Terminal Aerodrome Forecast
Issued by NWS Austin/San Antonio, TX

Home | Current Version | Previous Version | Text Only | Print | Product List | Glossary On
Versions: 1 2 3 4 5 6 7 8 9 10 11 12 13 14 15 16 17 18 19 20 21 22 23 24 25 26 27 28 29 30 31 32 33 34
000
FTUS44 KEWX 291609 AAC
TAFSAT
TAF AMD
KSAT 291609Z 2916/3018 07007KT P6SM SCT140 BKN250
     FM291800 13010KT P6SM BKN040
     FM300400 13010KT P6SM OVC018
     FM300800 15008KT 5SM BR OVC007=

USA.gov is the U.S. government's official web portal to all federal, state and local government web resources and services.